Terminal Aerodrome Forecast
Issued by NWS

Home | Current Version | Previous Version | Text Only | Print | Product List | Glossary On
Versions: 1 2 3 4 5 6 7 8 9 10 11 12 13 14 15 16 17 18 19 20 21 22 23 24 25 26 27 28 29 30
572
FTUS43 KDLH 202324
TAFHIB
TAF
KHIB 202324Z 2100/2124 17005KT 2SM -RA BR OVC004
     FM210200 VRB03KT 3/4SM -RA BR OVC003
     FM210400 28008KT 3SM BR SCT004
     FM211000 27003KT 3/4SM BR SCT002 OVC004
     FM211400 21004KT 3SM BR BKN010
     FM211600 20006KT P6SM SCT080=

USA.gov is the U.S. government's official web portal to all federal, state and local government web resources and services.